sensor_id;sensor_type;location;lat;lon;timestamp;P1;durP1;ratioP1;P2;durP2;ratioP2
78840;SDS011;68379;47.190;27.558;2024-02-21T00:00:31;21.30;;;10.30;;
78840;SDS011;68379;47.190;27.558;2024-02-21T00:03:23;25.00;;;11.10;;
78840;SDS011;68379;47.190;27.558;2024-02-21T00:05:54;26.20;;;11.40;;
78840;SDS011;68379;47.190;27.558;2024-02-21T00:08:26;24.20;;;11.60;;
78840;SDS011;68379;47.190;27.558;2024-02-21T00:10:57;26.20;;;11.30;;
78840;SDS011;68379;47.190;27.558;2024-02-21T00:13:29;20.90;;;10.50;;
78840;SDS011;68379;47.190;27.558;2024-02-21T00:16:01;26.30;;;11.30;;
78840;SDS011;68379;47.190;27.558;2024-02-21T00:18:33;19.80;;;10.80;;
78840;SDS011;68379;47.190;27.558;2024-02-21T00:21:05;23.40;;;11.90;;
78840;SDS011;68379;47.190;27.558;2024-02-21T00:23:36;24.20;;;11.00;;
78840;SDS011;68379;47.190;27.558;2024-02-21T00:26:08;25.40;;;12.00;;
78840;SDS011;68379;47.190;27.558;2024-02-21T00:28:39;20.90;;;11.10;;
78840;SDS011;68379;47.190;27.558;2024-02-21T00:31:10;21.40;;;11.20;;
78840;SDS011;68379;47.190;27.558;2024-02-21T00:33:42;20.80;;;11.00;;
78840;SDS011;68379;47.190;27.558;2024-02-21T00:36:14;22.20;;;11.30;;
78840;SDS011;68379;47.190;27.558;2024-02-21T00:38:46;24.10;;;11.50;;
78840;SDS011;68379;47.190;27.558;2024-02-21T00:41:17;24.80;;;11.90;;
78840;SDS011;68379;47.190;27.558;2024-02-21T00:43:49;22.40;;;11.50;;
78840;SDS011;68379;47.190;27.558;2024-02-21T00:46:20;22.40;;;11.70;;
78840;SDS011;68379;47.190;27.558;2024-02-21T00:48:52;22.60;;;11.70;;
78840;SDS011;68379;47.190;27.558;2024-02-21T00:51:23;26.80;;;12.40;;
78840;SDS011;68379;47.190;27.558;2024-02-21T00:53:55;23.00;;;11.00;;
78840;SDS011;68379;47.190;27.558;2024-02-21T00:56:26;24.80;;;11.10;;
78840;SDS011;68379;47.190;27.558;2024-02-21T00:58:58;23.80;;;12.10;;
78840;SDS011;68379;47.190;27.558;2024-02-21T01:01:30;23.40;;;11.40;;
78840;SDS011;68379;47.190;27.558;2024-02-21T01:04:01;22.90;;;11.40;;
78840;SDS011;68379;47.190;27.558;2024-02-21T01:06:33;22.50;;;11.10;;
78840;SDS011;68379;47.190;27.558;2024-02-21T01:09:05;24.30;;;12.20;;
78840;SDS011;68379;47.190;27.558;2024-02-21T01:11:36;22.70;;;10.60;;
78840;SDS011;68379;47.190;27.558;2024-02-21T01:14:08;22.60;;;11.10;;
78840;SDS011;68379;47.190;27.558;2024-02-21T01:16:40;26.10;;;12.30;;
78840;SDS011;68379;47.190;27.558;2024-02-21T01:19:12;26.30;;;11.70;;
78840;SDS011;68379;47.190;27.558;2024-02-21T01:21:43;25.40;;;11.40;;
78840;SDS011;68379;47.190;27.558;2024-02-21T01:24:15;24.70;;;12.10;;
78840;SDS011;68379;47.190;27.558;2024-02-21T01:26:46;25.80;;;13.60;;
78840;SDS011;68379;47.190;27.558;2024-02-21T01:29:17;27.50;;;12.10;;
78840;SDS011;68379;47.190;27.558;2024-02-21T01:31:49;23.80;;;12.10;;
78840;SDS011;68379;47.190;27.558;2024-02-21T01:34:21;27.20;;;12.20;;
78840;SDS011;68379;47.190;27.558;2024-02-21T01:36:52;26.70;;;12.30;;
78840;SDS011;68379;47.190;27.558;2024-02-21T01:39:24;23.60;;;12.60;;
78840;SDS011;68379;47.190;27.558;2024-02-21T01:41:55;25.90;;;12.20;;
78840;SDS011;68379;47.190;27.558;2024-02-21T01:44:27;24.00;;;11.90;;
78840;SDS011;68379;47.190;27.558;2024-02-21T01:46:58;25.60;;;12.50;;
78840;SDS011;68379;47.190;27.558;2024-02-21T01:49:30;27.40;;;12.00;;
78840;SDS011;68379;47.190;27.558;2024-02-21T01:52:02;24.10;;;11.50;;
78840;SDS011;68379;47.190;27.558;2024-02-21T01:54:34;29.10;;;13.20;;
78840;SDS011;68379;47.190;27.558;2024-02-21T01:57:06;24.00;;;11.60;;
78840;SDS011;68379;47.190;27.558;2024-02-21T01:59:38;25.50;;;12.80;;
78840;SDS011;68379;47.190;27.558;2024-02-21T02:02:10;24.30;;;12.60;;
78840;SDS011;68379;47.190;27.558;2024-02-21T02:04:42;24.50;;;12.80;;
78840;SDS011;68379;47.190;27.558;2024-02-21T02:07:14;26.40;;;12.00;;
78840;SDS011;68379;47.190;27.558;2024-02-21T02:09:45;24.60;;;12.00;;
78840;SDS011;68379;47.190;27.558;2024-02-21T02:12:17;21.10;;;10.70;;
78840;SDS011;68379;47.190;27.558;2024-02-21T02:14:58;20.70;;;10.20;;
78840;SDS011;68379;47.190;27.558;2024-02-21T02:17:32;26.40;;;11.20;;
78840;SDS011;68379;47.190;27.558;2024-02-21T02:20:05;24.40;;;11.40;;
78840;SDS011;68379;47.190;27.558;2024-02-21T02:22:37;24.60;;;11.10;;
78840;SDS011;68379;47.190;27.558;2024-02-21T02:25:12;26.40;;;11.50;;
78840;SDS011;68379;47.190;27.558;2024-02-21T02:27:44;24.60;;;11.80;;
78840;SDS011;68379;47.190;27.558;2024-02-21T02:30:15;26.90;;;12.50;;
78840;SDS011;68379;47.190;27.558;2024-02-21T02:32:47;22.60;;;12.00;;
78840;SDS011;68379;47.190;27.558;2024-02-21T02:35:18;26.20;;;11.60;;
78840;SDS011;68379;47.190;27.558;2024-02-21T02:37:50;24.80;;;11.80;;
78840;SDS011;68379;47.190;27.558;2024-02-21T02:40:22;24.50;;;11.80;;
78840;SDS011;68379;47.190;27.558;2024-02-21T02:42:53;24.70;;;12.10;;
78840;SDS011;68379;47.190;27.558;2024-02-21T02:45:25;27.00;;;11.80;;
78840;SDS011;68379;47.190;27.558;2024-02-21T02:47:57;24.90;;;11.30;;
78840;SDS011;68379;47.190;27.558;2024-02-21T02:50:29;22.00;;;10.60;;
78840;SDS011;68379;47.190;27.558;2024-02-21T02:53:01;23.90;;;11.10;;
78840;SDS011;68379;47.190;27.558;2024-02-21T02:55:33;25.50;;;11.80;;
78840;SDS011;68379;47.190;27.558;2024-02-21T02:58:04;23.00;;;11.30;;
78840;SDS011;68379;47.190;27.558;2024-02-21T03:00:36;23.20;;;11.10;;
78840;SDS011;68379;47.190;27.558;2024-02-21T03:03:08;23.00;;;10.20;;
78840;SDS011;68379;47.190;27.558;2024-02-21T03:05:40;25.40;;;10.80;;
78840;SDS011;68379;47.190;27.558;2024-02-21T03:08:12;23.60;;;11.20;;
78840;SDS011;68379;47.190;27.558;2024-02-21T03:10:43;23.00;;;11.80;;
78840;SDS011;68379;47.190;27.558;2024-02-21T03:13:15;21.80;;;10.50;;
78840;SDS011;68379;47.190;27.558;2024-02-21T03:15:47;22.20;;;10.60;;
78840;SDS011;68379;47.190;27.558;2024-02-21T03:18:18;20.80;;;10.10;;
78840;SDS011;68379;47.190;27.558;2024-02-21T03:20:50;25.10;;;10.50;;
78840;SDS011;68379;47.190;27.558;2024-02-21T03:23:22;23.20;;;10.90;;
78840;SDS011;68379;47.190;27.558;2024-02-21T03:25:54;25.50;;;11.20;;
78840;SDS011;68379;47.190;27.558;2024-02-21T03:28:25;22.80;;;10.40;;
78840;SDS011;68379;47.190;27.558;2024-02-21T03:30:57;21.90;;;10.80;;
78840;SDS011;68379;47.190;27.558;2024-02-21T03:33:28;21.00;;;9.60;;
78840;SDS011;68379;47.190;27.558;2024-02-21T03:36:00;22.90;;;10.30;;
78840;SDS011;68379;47.190;27.558;2024-02-21T03:38:32;21.60;;;10.40;;
78840;SDS011;68379;47.190;27.558;2024-02-21T03:41:04;22.50;;;10.60;;
78840;SDS011;68379;47.190;27.558;2024-02-21T03:43:37;22.00;;;9.80;;
78840;SDS011;68379;47.190;27.558;2024-02-21T03:46:08;19.70;;;9.50;;
78840;SDS011;68379;47.190;27.558;2024-02-21T03:48:40;23.10;;;9.80;;
78840;SDS011;68379;47.190;27.558;2024-02-21T03:51:11;19.00;;;9.00;;
78840;SDS011;68379;47.190;27.558;2024-02-21T03:53:43;19.40;;;9.20;;
78840;SDS011;68379;47.190;27.558;2024-02-21T03:56:15;19.50;;;8.70;;
78840;SDS011;68379;47.190;27.558;2024-02-21T03:58:47;18.80;;;8.90;;
78840;SDS011;68379;47.190;27.558;2024-02-21T04:01:19;19.90;;;9.00;;
78840;SDS011;68379;47.190;27.558;2024-02-21T04:03:51;20.70;;;9.30;;
78840;SDS011;68379;47.190;27.558;2024-02-21T04:06:22;16.40;;;8.50;;
78840;SDS011;68379;47.190;27.558;2024-02-21T04:08:54;18.80;;;8.40;;
78840;SDS011;68379;47.190;27.558;2024-02-21T04:11:26;17.10;;;8.20;;
78840;SDS011;68379;47.190;27.558;2024-02-21T04:13:58;14.60;;;7.50;;
78840;SDS011;68379;47.190;27.558;2024-02-21T04:16:30;17.20;;;7.10;;
78840;SDS011;68379;47.190;27.558;2024-02-21T04:19:01;16.00;;;7.40;;
78840;SDS011;68379;47.190;27.558;2024-02-21T04:21:33;15.40;;;6.90;;
78840;SDS011;68379;47.190;27.558;2024-02-21T04:24:05;17.20;;;8.60;;
78840;SDS011;68379;47.190;27.558;2024-02-21T04:26:37;15.00;;;7.50;;
78840;SDS011;68379;47.190;27.558;2024-02-21T04:29:08;15.40;;;7.40;;
78840;SDS011;68379;47.190;27.558;2024-02-21T04:31:40;13.40;;;7.20;;
78840;SDS011;68379;47.190;27.558;2024-02-21T04:34:11;16.20;;;7.40;;
78840;SDS011;68379;47.190;27.558;2024-02-21T04:36:43;15.80;;;8.20;;
78840;SDS011;68379;47.190;27.558;2024-02-21T04:39:14;16.60;;;6.90;;
78840;SDS011;68379;47.190;27.558;2024-02-21T04:41:46;15.10;;;7.30;;
78840;SDS011;68379;47.190;27.558;2024-02-21T04:44:17;18.10;;;7.50;;
78840;SDS011;68379;47.190;27.558;2024-02-21T04:46:50;15.70;;;7.60;;
78840;SDS011;68379;47.190;27.558;2024-02-21T04:49:22;17.40;;;8.00;;
78840;SDS011;68379;47.190;27.558;2024-02-21T04:51:53;17.90;;;7.80;;
78840;SDS011;68379;47.190;27.558;2024-02-21T04:54:25;15.10;;;6.80;;
78840;SDS011;68379;47.190;27.558;2024-02-21T04:56:56;16.40;;;7.80;;
78840;SDS011;68379;47.190;27.558;2024-02-21T04:59:28;16.70;;;7.60;;
78840;SDS011;68379;47.190;27.558;2024-02-21T05:02:00;17.50;;;7.90;;
78840;SDS011;68379;47.190;27.558;2024-02-21T05:04:31;15.30;;;7.20;;
78840;SDS011;68379;47.190;27.558;2024-02-21T05:07:05;15.50;;;7.20;;
78840;SDS011;68379;47.190;27.558;2024-02-21T05:09:39;20.40;;;8.60;;
78840;SDS011;68379;47.190;27.558;2024-02-21T05:12:11;16.70;;;8.80;;
78840;SDS011;68379;47.190;27.558;2024-02-21T05:14:43;18.30;;;7.50;;
78840;SDS011;68379;47.190;27.558;2024-02-21T05:17:15;17.60;;;7.60;;
78840;SDS011;68379;47.190;27.558;2024-02-21T05:19:46;16.00;;;7.80;;
78840;SDS011;68379;47.190;27.558;2024-02-21T05:22:18;19.60;;;9.50;;
78840;SDS011;68379;47.190;27.558;2024-02-21T05:24:50;16.90;;;8.50;;
78840;SDS011;68379;47.190;27.558;2024-02-21T05:27:21;17.40;;;8.90;;
78840;SDS011;68379;47.190;27.558;2024-02-21T05:29:53;17.20;;;8.50;;
78840;SDS011;68379;47.190;27.558;2024-02-21T05:32:24;18.10;;;8.40;;
78840;SDS011;68379;47.190;27.558;2024-02-21T05:34:56;20.60;;;8.80;;
78840;SDS011;68379;47.190;27.558;2024-02-21T05:37:28;18.60;;;8.40;;
78840;SDS011;68379;47.190;27.558;2024-02-21T05:40:00;17.80;;;8.20;;
78840;SDS011;68379;47.190;27.558;2024-02-21T05:42:31;18.80;;;8.60;;
78840;SDS011;68379;47.190;27.558;2024-02-21T05:45:03;19.50;;;8.60;;
78840;SDS011;68379;47.190;27.558;2024-02-21T05:47:36;20.10;;;8.60;;
78840;SDS011;68379;47.190;27.558;2024-02-21T05:50:08;18.60;;;8.30;;
78840;SDS011;68379;47.190;27.558;2024-02-21T05:52:40;21.10;;;8.60;;
78840;SDS011;68379;47.190;27.558;2024-02-21T05:55:12;14.90;;;7.60;;
78840;SDS011;68379;47.190;27.558;2024-02-21T05:57:44;19.20;;;8.70;;
78840;SDS011;68379;47.190;27.558;2024-02-21T06:00:16;18.30;;;8.30;;
78840;SDS011;68379;47.190;27.558;2024-02-21T06:02:48;16.30;;;8.60;;
78840;SDS011;68379;47.190;27.558;2024-02-21T06:05:20;17.20;;;8.00;;
78840;SDS011;68379;47.190;27.558;2024-02-21T06:07:52;19.80;;;9.10;;
78840;SDS011;68379;47.190;27.558;2024-02-21T06:10:23;16.50;;;8.40;;
78840;SDS011;68379;47.190;27.558;2024-02-21T06:12:55;17.50;;;7.70;;
78840;SDS011;68379;47.190;27.558;2024-02-21T06:15:27;19.10;;;9.00;;
78840;SDS011;68379;47.190;27.558;2024-02-21T06:17:58;17.40;;;9.20;;
78840;SDS011;68379;47.190;27.558;2024-02-21T06:20:30;18.30;;;8.40;;
78840;SDS011;68379;47.190;27.558;2024-02-21T06:23:04;18.20;;;8.30;;
78840;SDS011;68379;47.190;27.558;2024-02-21T06:25:36;18.50;;;8.90;;
78840;SDS011;68379;47.190;27.558;2024-02-21T06:28:08;16.20;;;8.40;;
78840;SDS011;68379;47.190;27.558;2024-02-21T06:30:40;16.70;;;8.20;;
78840;SDS011;68379;47.190;27.558;2024-02-21T06:33:11;17.30;;;8.40;;
78840;SDS011;68379;47.190;27.558;2024-02-21T06:35:43;17.60;;;8.50;;
78840;SDS011;68379;47.190;27.558;2024-02-21T06:38:15;18.20;;;8.70;;
78840;SDS011;68379;47.190;27.558;2024-02-21T06:40:47;16.70;;;8.40;;
78840;SDS011;68379;47.190;27.558;2024-02-21T06:43:20;17.60;;;8.50;;
78840;SDS011;68379;47.190;27.558;2024-02-21T06:45:52;16.50;;;8.90;;
78840;SDS011;68379;47.190;27.558;2024-02-21T06:48:25;19.70;;;8.70;;
78840;SDS011;68379;47.190;27.558;2024-02-21T06:50:56;17.70;;;8.90;;
78840;SDS011;68379;47.190;27.558;2024-02-21T06:53:28;18.30;;;9.30;;
78840;SDS011;68379;47.190;27.558;2024-02-21T06:55:59;19.80;;;9.50;;
78840;SDS011;68379;47.190;27.558;2024-02-21T06:58:31;20.00;;;9.60;;
78840;SDS011;68379;47.190;27.558;2024-02-21T07:01:03;24.10;;;10.40;;
78840;SDS011;68379;47.190;27.558;2024-02-21T07:03:35;20.00;;;9.20;;
78840;SDS011;68379;47.190;27.558;2024-02-21T07:06:07;21.00;;;9.70;;
78840;SDS011;68379;47.190;27.558;2024-02-21T07:08:38;19.80;;;9.70;;
78840;SDS011;68379;47.190;27.558;2024-02-21T07:11:10;23.30;;;11.20;;
78840;SDS011;68379;47.190;27.558;2024-02-21T07:13:42;18.90;;;10.60;;
78840;SDS011;68379;47.190;27.558;2024-02-21T07:16:13;18.80;;;10.00;;
78840;SDS011;68379;47.190;27.558;2024-02-21T07:18:45;20.50;;;10.60;;
78840;SDS011;68379;47.190;27.558;2024-02-21T07:21:16;21.20;;;11.80;;
78840;SDS011;68379;47.190;27.558;2024-02-21T07:23:48;26.50;;;12.40;;
78840;SDS011;68379;47.190;27.558;2024-02-21T07:26:19;22.30;;;11.70;;
78840;SDS011;68379;47.190;27.558;2024-02-21T07:28:51;23.00;;;12.30;;
78840;SDS011;68379;47.190;27.558;2024-02-21T07:31:22;22.70;;;12.30;;
78840;SDS011;68379;47.190;27.558;2024-02-21T07:33:54;24.90;;;13.20;;
78840;SDS011;68379;47.190;27.558;2024-02-21T07:36:27;25.40;;;12.90;;
78840;SDS011;68379;47.190;27.558;2024-02-21T07:38:59;27.30;;;13.60;;
78840;SDS011;68379;47.190;27.558;2024-02-21T07:41:31;23.70;;;11.70;;
78840;SDS011;68379;47.190;27.558;2024-02-21T07:44:03;28.30;;;13.50;;
78840;SDS011;68379;47.190;27.558;2024-02-21T07:46:35;23.70;;;11.80;;
78840;SDS011;68379;47.190;27.558;2024-02-21T07:49:06;24.80;;;12.60;;
78840;SDS011;68379;47.190;27.558;2024-02-21T07:51:38;21.50;;;11.20;;
78840;SDS011;68379;47.190;27.558;2024-02-21T07:54:10;25.80;;;13.90;;
78840;SDS011;68379;47.190;27.558;2024-02-21T07:56:42;22.80;;;13.00;;
78840;SDS011;68379;47.190;27.558;2024-02-21T07:59:14;26.80;;;13.90;;
78840;SDS011;68379;47.190;27.558;2024-02-21T08:01:46;27.00;;;14.80;;
78840;SDS011;68379;47.190;27.558;2024-02-21T08:04:17;23.30;;;11.40;;
78840;SDS011;68379;47.190;27.558;2024-02-21T08:06:52;23.40;;;11.70;;
78840;SDS011;68379;47.190;27.558;2024-02-21T08:09:24;24.30;;;12.10;;
78840;SDS011;68379;47.190;27.558;2024-02-21T08:11:56;25.30;;;13.90;;
78840;SDS011;68379;47.190;27.558;2024-02-21T08:14:28;26.80;;;14.60;;
78840;SDS011;68379;47.190;27.558;2024-02-21T08:16:59;23.40;;;13.00;;
78840;SDS011;68379;47.190;27.558;2024-02-21T08:19:32;25.30;;;12.70;;
78840;SDS011;68379;47.190;27.558;2024-02-21T08:22:03;22.80;;;13.20;;
78840;SDS011;68379;47.190;27.558;2024-02-21T08:24:35;25.00;;;13.50;;
78840;SDS011;68379;47.190;27.558;2024-02-21T08:27:07;24.80;;;13.00;;
78840;SDS011;68379;47.190;27.558;2024-02-21T08:29:38;23.70;;;13.20;;
78840;SDS011;68379;47.190;27.558;2024-02-21T08:32:10;21.50;;;11.90;;
78840;SDS011;68379;47.190;27.558;2024-02-21T08:34:42;23.80;;;12.40;;
78840;SDS011;68379;47.190;27.558;2024-02-21T08:37:13;25.20;;;11.50;;
78840;SDS011;68379;47.190;27.558;2024-02-21T08:39:44;22.10;;;12.70;;
78840;SDS011;68379;47.190;27.558;2024-02-21T08:42:16;28.20;;;13.80;;
78840;SDS011;68379;47.190;27.558;2024-02-21T08:44:48;22.00;;;13.20;;
78840;SDS011;68379;47.190;27.558;2024-02-21T08:47:20;27.30;;;14.20;;
78840;SDS011;68379;47.190;27.558;2024-02-21T08:49:52;25.50;;;13.70;;
78840;SDS011;68379;47.190;27.558;2024-02-21T08:52:24;24.10;;;12.20;;
78840;SDS011;68379;47.190;27.558;2024-02-21T08:54:55;26.10;;;12.50;;
78840;SDS011;68379;47.190;27.558;2024-02-21T08:57:27;28.70;;;13.00;;
78840;SDS011;68379;47.190;27.558;2024-02-21T09:00:05;24.40;;;12.90;;
78840;SDS011;68379;47.190;27.558;2024-02-21T09:02:39;22.90;;;13.50;;
78840;SDS011;68379;47.190;27.558;2024-02-21T09:05:12;28.70;;;14.60;;
78840;SDS011;68379;47.190;27.558;2024-02-21T09:07:43;25.20;;;13.00;;
78840;SDS011;68379;47.190;27.558;2024-02-21T09:10:15;26.80;;;13.80;;
78840;SDS011;68379;47.190;27.558;2024-02-21T09:12:47;26.80;;;13.80;;
78840;SDS011;68379;47.190;27.558;2024-02-21T09:15:23;24.10;;;12.10;;
78840;SDS011;68379;47.190;27.558;2024-02-21T09:17:55;23.40;;;12.60;;
78840;SDS011;68379;47.190;27.558;2024-02-21T09:20:27;20.80;;;11.70;;
78840;SDS011;68379;47.190;27.558;2024-02-21T09:22:59;20.90;;;11.40;;
78840;SDS011;68379;47.190;27.558;2024-02-21T09:25:31;24.90;;;11.40;;
78840;SDS011;68379;47.190;27.558;2024-02-21T09:28:03;24.80;;;12.40;;
78840;SDS011;68379;47.190;27.558;2024-02-21T09:30:35;24.00;;;12.00;;
78840;SDS011;68379;47.190;27.558;2024-02-21T09:33:07;26.10;;;12.90;;
78840;SDS011;68379;47.190;27.558;2024-02-21T09:35:38;23.80;;;12.00;;
78840;SDS011;68379;47.190;27.558;2024-02-21T09:38:10;28.20;;;12.60;;
78840;SDS011;68379;47.190;27.558;2024-02-21T09:40:41;24.30;;;12.30;;
78840;SDS011;68379;47.190;27.558;2024-02-21T09:43:13;23.80;;;11.30;;
78840;SDS011;68379;47.190;27.558;2024-02-21T09:45:49;24.80;;;12.90;;
78840;SDS011;68379;47.190;27.558;2024-02-21T09:48:29;27.80;;;13.20;;
78840;SDS011;68379;47.190;27.558;2024-02-21T09:51:12;25.30;;;14.20;;
78840;SDS011;68379;47.190;27.558;2024-02-21T09:53:46;24.90;;;13.20;;
78840;SDS011;68379;47.190;27.558;2024-02-21T09:56:20;24.80;;;13.50;;
78840;SDS011;68379;47.190;27.558;2024-02-21T09:58:52;31.00;;;15.20;;
78840;SDS011;68379;47.190;27.558;2024-02-21T10:01:23;25.00;;;13.70;;
78840;SDS011;68379;47.190;27.558;2024-02-21T10:03:55;27.50;;;14.10;;
78840;SDS011;68379;47.190;27.558;2024-02-21T10:06:27;22.90;;;12.70;;
78840;SDS011;68379;47.190;27.558;2024-02-21T10:08:58;24.10;;;13.40;;
78840;SDS011;68379;47.190;27.558;2024-02-21T10:11:30;31.50;;;14.30;;
78840;SDS011;68379;47.190;27.558;2024-02-21T10:14:05;26.30;;;15.20;;
78840;SDS011;68379;47.190;27.558;2024-02-21T10:16:37;27.00;;;13.90;;
78840;SDS011;68379;47.190;27.558;2024-02-21T10:19:17;24.80;;;14.50;;
78840;SDS011;68379;47.190;27.558;2024-02-21T10:22:03;28.50;;;14.90;;
78840;SDS011;68379;47.190;27.558;2024-02-21T10:24:36;26.60;;;14.50;;
78840;SDS011;68379;47.190;27.558;2024-02-21T10:27:09;24.20;;;13.40;;
78840;SDS011;68379;47.190;27.558;2024-02-21T10:29:40;26.80;;;14.00;;
78840;SDS011;68379;47.190;27.558;2024-02-21T10:32:19;26.00;;;13.60;;
78840;SDS011;68379;47.190;27.558;2024-02-21T10:35:00;27.90;;;15.10;;
78840;SDS011;68379;47.190;27.558;2024-02-21T10:37:33;27.20;;;14.50;;
78840;SDS011;68379;47.190;27.558;2024-02-21T10:40:07;29.40;;;14.70;;
78840;SDS011;68379;47.190;27.558;2024-02-21T10:42:39;24.80;;;13.10;;
78840;SDS011;68379;47.190;27.558;2024-02-21T10:45:12;25.60;;;14.00;;
78840;SDS011;68379;47.190;27.558;2024-02-21T10:47:44;22.00;;;13.30;;
78840;SDS011;68379;47.190;27.558;2024-02-21T10:50:25;21.80;;;12.20;;
78840;SDS011;68379;47.190;27.558;2024-02-21T10:53:04;26.30;;;12.80;;
78840;SDS011;68379;47.190;27.558;2024-02-21T10:55:48;23.30;;;13.20;;
78840;SDS011;68379;47.190;27.558;2024-02-21T10:58:28;19.40;;;11.20;;
78840;SDS011;68379;47.190;27.558;2024-02-21T11:01:02;21.00;;;12.90;;
78840;SDS011;68379;47.190;27.558;2024-02-21T11:03:35;19.50;;;12.00;;
78840;SDS011;68379;47.190;27.558;2024-02-21T11:06:07;18.60;;;11.30;;
78840;SDS011;68379;47.190;27.558;2024-02-21T11:08:41;19.00;;;11.00;;
78840;SDS011;68379;47.190;27.558;2024-02-21T11:11:13;20.30;;;11.00;;
78840;SDS011;68379;47.190;27.558;2024-02-21T11:13:48;18.10;;;10.20;;
78840;SDS011;68379;47.190;27.558;2024-02-21T11:16:23;22.10;;;11.60;;
78840;SDS011;68379;47.190;27.558;2024-02-21T11:18:54;17.30;;;10.60;;
78840;SDS011;68379;47.190;27.558;2024-02-21T11:21:36;19.80;;;11.50;;
78840;SDS011;68379;47.190;27.558;2024-02-21T11:26:39;25.70;;;13.00;;
78840;SDS011;68379;47.190;27.558;2024-02-21T11:29:11;22.90;;;13.20;;
78840;SDS011;68379;47.190;27.558;2024-02-21T11:31:54;20.00;;;11.60;;
78840;SDS011;68379;47.190;27.558;2024-02-21T11:34:26;17.20;;;11.20;;
78840;SDS011;68379;47.190;27.558;2024-02-21T11:36:58;21.60;;;10.40;;
78840;SDS011;68379;47.190;27.558;2024-02-21T11:39:30;19.70;;;10.60;;
78840;SDS011;68379;47.190;27.558;2024-02-21T11:42:02;19.90;;;11.10;;
78840;SDS011;68379;47.190;27.558;2024-02-21T11:44:36;20.90;;;10.50;;
78840;SDS011;68379;47.190;27.558;2024-02-21T11:47:10;17.60;;;11.10;;
78840;SDS011;68379;47.190;27.558;2024-02-21T11:49:46;17.40;;;10.50;;
78840;SDS011;68379;47.190;27.558;2024-02-21T11:52:22;19.20;;;10.60;;
78840;SDS011;68379;47.190;27.558;2024-02-21T11:54:55;18.70;;;10.90;;
78840;SDS011;68379;47.190;27.558;2024-02-21T11:57:32;19.40;;;11.10;;
78840;SDS011;68379;47.190;27.558;2024-02-21T12:00:14;20.30;;;10.80;;
78840;SDS011;68379;47.190;27.558;2024-02-21T12:02:49;19.80;;;12.20;;
78840;SDS011;68379;47.190;27.558;2024-02-21T12:05:21;22.50;;;10.80;;
78840;SDS011;68379;47.190;27.558;2024-02-21T12:07:55;17.90;;;10.60;;
78840;SDS011;68379;47.190;27.558;2024-02-21T12:10:27;24.10;;;11.40;;
78840;SDS011;68379;47.190;27.558;2024-02-21T12:13:06;18.20;;;11.10;;
78840;SDS011;68379;47.190;27.558;2024-02-21T12:15:39;19.30;;;11.40;;
78840;SDS011;68379;47.190;27.558;2024-02-21T12:18:11;21.50;;;11.10;;
78840;SDS011;68379;47.190;27.558;2024-02-21T12:20:43;18.00;;;11.50;;
78840;SDS011;68379;47.190;27.558;2024-02-21T12:23:19;17.30;;;9.80;;
78840;SDS011;68379;47.190;27.558;2024-02-21T12:25:52;19.40;;;11.10;;
78840;SDS011;68379;47.190;27.558;2024-02-21T12:28:24;17.80;;;11.30;;
78840;SDS011;68379;47.190;27.558;2024-02-21T12:30:58;18.90;;;11.30;;
78840;SDS011;68379;47.190;27.558;2024-02-21T12:33:32;19.40;;;10.40;;
78840;SDS011;68379;47.190;27.558;2024-02-21T12:36:04;21.20;;;11.70;;
78840;SDS011;68379;47.190;27.558;2024-02-21T12:38:37;19.00;;;11.40;;
78840;SDS011;68379;47.190;27.558;2024-02-21T12:41:08;19.70;;;11.50;;
78840;SDS011;68379;47.190;27.558;2024-02-21T12:43:40;16.80;;;9.90;;
78840;SDS011;68379;47.190;27.558;2024-02-21T12:46:12;17.80;;;10.60;;
78840;SDS011;68379;47.190;27.558;2024-02-21T12:48:44;21.20;;;11.50;;
78840;SDS011;68379;47.190;27.558;2024-02-21T12:51:15;17.10;;;10.80;;
78840;SDS011;68379;47.190;27.558;2024-02-21T12:56:19;15.30;;;9.10;;
78840;SDS011;68379;47.190;27.558;2024-02-21T12:58:50;17.70;;;10.00;;
78840;SDS011;68379;47.190;27.558;2024-02-21T13:01:22;15.00;;;9.00;;
78840;SDS011;68379;47.190;27.558;2024-02-21T13:03:54;20.00;;;9.80;;
78840;SDS011;68379;47.190;27.558;2024-02-21T13:06:29;16.00;;;9.80;;
78840;SDS011;68379;47.190;27.558;2024-02-21T13:09:00;17.20;;;8.90;;
78840;SDS011;68379;47.190;27.558;2024-02-21T13:11:36;15.50;;;9.00;;
78840;SDS011;68379;47.190;27.558;2024-02-21T13:14:08;14.80;;;7.90;;
78840;SDS011;68379;47.190;27.558;2024-02-21T13:16:40;17.00;;;8.30;;
78840;SDS011;68379;47.190;27.558;2024-02-21T13:19:11;9.90;;;6.10;;
78840;SDS011;68379;47.190;27.558;2024-02-21T13:21:45;12.60;;;7.30;;
78840;SDS011;68379;47.190;27.558;2024-02-21T13:24:17;10.10;;;5.80;;
78840;SDS011;68379;47.190;27.558;2024-02-21T13:26:48;7.90;;;5.50;;
78840;SDS011;68379;47.190;27.558;2024-02-21T13:29:20;12.70;;;5.80;;
78840;SDS011;68379;47.190;27.558;2024-02-21T13:31:51;10.90;;;6.10;;
78840;SDS011;68379;47.190;27.558;2024-02-21T13:34:23;7.40;;;4.80;;
78840;SDS011;68379;47.190;27.558;2024-02-21T13:36:54;9.80;;;5.40;;
78840;SDS011;68379;47.190;27.558;2024-02-21T13:39:27;6.70;;;3.10;;
78840;SDS011;68379;47.190;27.558;2024-02-21T13:41:59;5.20;;;3.40;;
78840;SDS011;68379;47.190;27.558;2024-02-21T13:44:33;9.30;;;4.60;;
78840;SDS011;68379;47.190;27.558;2024-02-21T13:47:05;7.30;;;4.80;;
78840;SDS011;68379;47.190;27.558;2024-02-21T13:49:37;9.30;;;4.30;;
78840;SDS011;68379;47.190;27.558;2024-02-21T13:52:09;8.40;;;4.40;;
78840;SDS011;68379;47.190;27.558;2024-02-21T13:54:40;9.20;;;5.10;;
78840;SDS011;68379;47.190;27.558;2024-02-21T13:57:12;8.30;;;4.70;;
78840;SDS011;68379;47.190;27.558;2024-02-21T13:59:43;6.80;;;4.80;;
78840;SDS011;68379;47.190;27.558;2024-02-21T14:02:15;5.20;;;3.30;;
78840;SDS011;68379;47.190;27.558;2024-02-21T14:04:47;10.50;;;5.50;;
78840;SDS011;68379;47.190;27.558;2024-02-21T14:07:19;6.50;;;4.20;;
78840;SDS011;68379;47.190;27.558;2024-02-21T14:09:50;6.80;;;3.40;;
78840;SDS011;68379;47.190;27.558;2024-02-21T14:12:22;9.50;;;5.60;;
78840;SDS011;68379;47.190;27.558;2024-02-21T14:14:53;10.30;;;5.80;;
78840;SDS011;68379;47.190;27.558;2024-02-21T14:17:26;10.20;;;6.10;;
78840;SDS011;68379;47.190;27.558;2024-02-21T14:19:58;10.40;;;5.50;;
78840;SDS011;68379;47.190;27.558;2024-02-21T14:22:29;10.80;;;6.10;;
78840;SDS011;68379;47.190;27.558;2024-02-21T14:25:02;12.30;;;7.20;;
78840;SDS011;68379;47.190;27.558;2024-02-21T14:27:34;14.20;;;7.20;;
78840;SDS011;68379;47.190;27.558;2024-02-21T14:30:07;11.40;;;7.20;;
78840;SDS011;68379;47.190;27.558;2024-02-21T14:35:12;13.50;;;7.10;;
78840;SDS011;68379;47.190;27.558;2024-02-21T14:37:44;13.00;;;7.90;;
78840;SDS011;68379;47.190;27.558;2024-02-21T14:40:17;15.20;;;7.70;;
78840;SDS011;68379;47.190;27.558;2024-02-21T14:42:48;14.40;;;8.40;;
78840;SDS011;68379;47.190;27.558;2024-02-21T14:45:21;18.40;;;8.40;;
78840;SDS011;68379;47.190;27.558;2024-02-21T14:47:52;19.50;;;9.10;;
78840;SDS011;68379;47.190;27.558;2024-02-21T14:50:24;17.40;;;8.90;;